sensor_id;sensor_type;location;lat;lon;timestamp;pressure;altitude;pressure_sealevel;temperature;humidity
18795;BME280;29610;49.022;12.114;2023-05-22T00:00:32;97401.34;;;17.25;100.00
18795;BME280;29610;49.022;12.114;2023-05-22T00:03:24;97400.38;;;17.10;100.00
18795;BME280;29610;49.022;12.114;2023-05-22T00:06:13;97396.03;;;17.09;100.00
18795;BME280;29610;49.022;12.114;2023-05-22T00:09:02;97390.97;;;17.11;100.00
18795;BME280;29610;49.022;12.114;2023-05-22T00:11:51;97391.69;;;17.08;100.00
18795;BME280;29610;49.022;12.114;2023-05-22T00:14:40;97397.06;;;17.01;100.00
18795;BME280;29610;49.022;12.114;2023-05-22T00:17:29;97391.88;;;16.93;100.00
18795;BME280;29610;49.022;12.114;2023-05-22T00:20:19;97384.53;;;17.00;100.00
18795;BME280;29610;49.022;12.114;2023-05-22T00:23:08;97388.91;;;17.05;100.00
18795;BME280;29610;49.022;12.114;2023-05-22T00:25:59;97380.44;;;17.17;100.00
18795;BME280;29610;49.022;12.114;2023-05-22T00:28:48;97378.97;;;17.23;100.00
18795;BME280;29610;49.022;12.114;2023-05-22T00:31:37;97383.28;;;16.98;100.00
18795;BME280;29610;49.022;12.114;2023-05-22T00:34:25;97386.84;;;16.98;100.00
18795;BME280;29610;49.022;12.114;2023-05-22T00:37:16;97385.94;;;16.91;100.00
18795;BME280;29610;49.022;12.114;2023-05-22T00:40:08;97388.78;;;16.98;100.00
18795;BME280;29610;49.022;12.114;2023-05-22T00:42:57;97386.63;;;16.84;100.00
18795;BME280;29610;49.022;12.114;2023-05-22T00:45:46;97390.13;;;16.81;100.00
18795;BME280;29610;49.022;12.114;2023-05-22T00:48:35;97389.34;;;16.58;100.00
18795;BME280;29610;49.022;12.114;2023-05-22T00:51:24;97383.25;;;16.68;100.00
18795;BME280;29610;49.022;12.114;2023-05-22T00:54:16;97373.75;;;16.62;100.00
18795;BME280;29610;49.022;12.114;2023-05-22T00:57:06;97378.72;;;16.57;100.00
18795;BME280;29610;49.022;12.114;2023-05-22T00:59:55;97374.16;;;16.42;100.00
18795;BME280;29610;49.022;12.114;2023-05-22T01:02:45;97376.03;;;16.38;100.00
18795;BME280;29610;49.022;12.114;2023-05-22T01:05:35;97379.78;;;16.07;100.00
18795;BME280;29610;49.022;12.114;2023-05-22T01:08:24;97380.97;;;16.06;100.00
18795;BME280;29610;49.022;12.114;2023-05-22T01:11:21;97382.81;;;16.02;100.00
18795;BME280;29610;49.022;12.114;2023-05-22T01:14:22;97379.75;;;15.84;100.00
18795;BME280;29610;49.022;12.114;2023-05-22T01:17:22;97387.06;;;15.77;100.00
18795;BME280;29610;49.022;12.114;2023-05-22T01:20:24;97386.78;;;15.63;100.00
18795;BME280;29610;49.022;12.114;2023-05-22T01:24:05;97386.78;;;15.63;100.00
18795;BME280;29610;49.022;12.114;2023-05-22T01:27:48;97392.63;;;15.61;100.00
18795;BME280;29610;49.022;12.114;2023-05-22T01:30:58;97392.97;;;15.60;100.00
18795;BME280;29610;49.022;12.114;2023-05-22T01:33:52;97399.31;;;15.45;100.00
18795;BME280;29610;49.022;12.114;2023-05-22T01:36:45;97404.09;;;15.32;100.00
18795;BME280;29610;49.022;12.114;2023-05-22T01:39:37;97400.41;;;15.25;100.00
18795;BME280;29610;49.022;12.114;2023-05-22T01:42:28;97403.59;;;15.27;100.00
18795;BME280;29610;49.022;12.114;2023-05-22T01:45:17;97404.91;;;15.33;100.00
18795;BME280;29610;49.022;12.114;2023-05-22T01:48:09;97394.47;;;15.38;100.00
18795;BME280;29610;49.022;12.114;2023-05-22T01:51:06;97392.97;;;15.60;100.00
18795;BME280;29610;49.022;12.114;2023-05-22T01:54:03;97388.78;;;15.66;100.00
18795;BME280;29610;49.022;12.114;2023-05-22T01:57:02;97382.66;;;15.72;100.00
18795;BME280;29610;49.022;12.114;2023-05-22T02:00:02;97389.34;;;15.75;100.00
18795;BME280;29610;49.022;12.114;2023-05-22T02:03:10;97379.75;;;15.84;100.00
18795;BME280;29610;49.022;12.114;2023-05-22T02:06:05;97385.75;;;15.90;100.00
18795;BME280;29610;49.022;12.114;2023-05-22T02:08:55;97383.44;;;15.92;100.00
18795;BME280;29610;49.022;12.114;2023-05-22T02:11:47;97381.44;;;15.89;100.00
18795;BME280;29610;49.022;12.114;2023-05-22T02:14:36;97382.63;;;15.91;100.00
18795;BME280;29610;49.022;12.114;2023-05-22T02:17:26;97390.53;;;15.74;100.00
18795;BME280;29610;49.022;12.114;2023-05-22T02:20:18;97390.38;;;15.86;100.00
18795;BME280;29610;49.022;12.114;2023-05-22T02:23:07;97382.28;;;15.93;100.00
18795;BME280;29610;49.022;12.114;2023-05-22T02:25:56;97379.88;;;16.10;100.00
18795;BME280;29610;49.022;12.114;2023-05-22T02:28:45;97377.59;;;15.93;100.00
18795;BME280;29610;49.022;12.114;2023-05-22T02:31:34;97379.91;;;15.91;100.00
18795;BME280;29610;49.022;12.114;2023-05-22T02:34:23;97373.13;;;15.85;100.00
18795;BME280;29610;49.022;12.114;2023-05-22T02:37:14;97379.13;;;15.72;100.00
18795;BME280;29610;49.022;12.114;2023-05-22T02:40:04;97372.50;;;15.73;100.00
18795;BME280;29610;49.022;12.114;2023-05-22T02:42:53;97372.88;;;15.52;100.00
18795;BME280;29610;49.022;12.114;2023-05-22T02:45:42;97381.22;;;15.59;100.00
18795;BME280;29610;49.022;12.114;2023-05-22T02:48:31;97376.44;;;15.37;100.00
18795;BME280;29610;49.022;12.114;2023-05-22T02:51:20;97376.28;;;15.46;100.00
18795;BME280;29610;49.022;12.114;2023-05-22T02:54:10;97378.38;;;15.37;100.00
18795;BME280;29610;49.022;12.114;2023-05-22T02:56:59;97376.44;;;15.37;100.00
18795;BME280;29610;49.022;12.114;2023-05-22T02:59:49;97383.06;;;15.36;100.00
18795;BME280;29610;49.022;12.114;2023-05-22T03:02:39;97377.81;;;15.28;100.00
18795;BME280;29610;49.022;12.114;2023-05-22T03:05:29;97378.53;;;15.25;100.00
18795;BME280;29610;49.022;12.114;2023-05-22T03:08:18;97383.81;;;15.33;100.00
18795;BME280;29610;49.022;12.114;2023-05-22T03:11:09;97381.69;;;15.27;100.00
18795;BME280;29610;49.022;12.114;2023-05-22T03:13:57;97382.75;;;15.22;100.00
18795;BME280;29610;49.022;12.114;2023-05-22T03:16:46;97395.06;;;15.13;100.00
18795;BME280;29610;49.022;12.114;2023-05-22T03:19:35;97390.97;;;14.88;100.00
18795;BME280;29610;49.022;12.114;2023-05-22T03:22:24;97386.03;;;14.78;100.00
18795;BME280;29610;49.022;12.114;2023-05-22T03:25:13;97389.50;;;14.75;100.00
18795;BME280;29610;49.022;12.114;2023-05-22T03:28:04;97390.81;;;14.81;100.00
18795;BME280;29610;49.022;12.114;2023-05-22T03:30:57;97395.63;;;15.03;100.00
18795;BME280;29610;49.022;12.114;2023-05-22T03:33:50;97386.22;;;15.19;100.00
18795;BME280;29610;49.022;12.114;2023-05-22T03:36:40;97394.63;;;15.11;100.00
18795;BME280;29610;49.022;12.114;2023-05-22T03:39:28;97394.28;;;14.97;100.00
18795;BME280;29610;49.022;12.114;2023-05-22T03:42:26;97392.22;;;14.90;100.00
18795;BME280;29610;49.022;12.114;2023-05-22T03:45:18;97396.91;;;14.74;100.00
18795;BME280;29610;49.022;12.114;2023-05-22T03:48:07;97394.28;;;14.97;100.00
18795;BME280;29610;49.022;12.114;2023-05-22T03:50:57;97392.50;;;15.20;100.00
18795;BME280;29610;49.022;12.114;2023-05-22T03:53:45;97395.06;;;15.32;100.00
18795;BME280;29610;49.022;12.114;2023-05-22T03:56:34;97398.91;;;15.27;100.00
18795;BME280;29610;49.022;12.114;2023-05-22T03:59:23;97401.22;;;15.25;100.00
18795;BME280;29610;49.022;12.114;2023-05-22T04:02:13;97405.38;;;15.19;100.00
18795;BME280;29610;49.022;12.114;2023-05-22T04:05:07;97404.47;;;15.31;100.00
18795;BME280;29610;49.022;12.114;2023-05-22T04:07:56;97394.78;;;15.18;100.00
18795;BME280;29610;49.022;12.114;2023-05-22T04:10:45;97399.91;;;14.85;100.00
18795;BME280;29610;49.022;12.114;2023-05-22T04:13:35;97396.09;;;14.89;100.00
18795;BME280;29610;49.022;12.114;2023-05-22T04:16:24;97392.00;;;14.99;100.00
18795;BME280;29610;49.022;12.114;2023-05-22T04:19:14;97392.91;;;15.03;100.00
18795;BME280;29610;49.022;12.114;2023-05-22T04:22:04;97392.22;;;15.25;100.00
18795;BME280;29610;49.022;12.114;2023-05-22T04:24:53;97397.81;;;15.47;100.00
18795;BME280;29610;49.022;12.114;2023-05-22T04:27:44;97383.63;;;15.26;100.00
18795;BME280;29610;49.022;12.114;2023-05-22T04:30:34;97391.53;;;15.47;100.00
18795;BME280;29610;49.022;12.114;2023-05-22T04:33:24;97386.56;;;15.52;100.00
18795;BME280;29610;49.022;12.114;2023-05-22T04:36:15;97390.59;;;15.58;100.00
18795;BME280;29610;49.022;12.114;2023-05-22T04:39:09;97397.56;;;15.56;100.00
18795;BME280;29610;49.022;12.114;2023-05-22T04:42:00;97388.50;;;15.71;100.00
18795;BME280;29610;49.022;12.114;2023-05-22T04:44:52;97389.94;;;15.84;100.00
18795;BME280;29610;49.022;12.114;2023-05-22T04:47:44;97392.44;;;15.92;100.00
18795;BME280;29610;49.022;12.114;2023-05-22T04:50:33;97386.97;;;15.92;100.00
18795;BME280;29610;49.022;12.114;2023-05-22T04:53:24;97386.59;;;15.94;100.00
18795;BME280;29610;49.022;12.114;2023-05-22T04:56:14;97384.53;;;16.10;100.00
18795;BME280;29610;49.022;12.114;2023-05-22T04:59:18;97389.97;;;16.48;100.00
18795;BME280;29610;49.022;12.114;2023-05-22T05:02:09;97386.81;;;16.72;100.00
18795;BME280;29610;49.022;12.114;2023-05-22T05:04:58;97391.97;;;17.00;100.00
18795;BME280;29610;49.022;12.114;2023-05-22T05:07:48;97385.78;;;17.36;100.00
18795;BME280;29610;49.022;12.114;2023-05-22T05:10:39;97387.16;;;17.45;100.00
18795;BME280;29610;49.022;12.114;2023-05-22T05:13:28;97383.59;;;17.45;100.00
18795;BME280;29610;49.022;12.114;2023-05-22T05:16:17;97390.13;;;17.67;100.00
18795;BME280;29610;49.022;12.114;2023-05-22T05:19:06;97388.19;;;17.37;100.00
18795;BME280;29610;49.022;12.114;2023-05-22T05:21:55;97388.50;;;17.92;100.00
18795;BME280;29610;49.022;12.114;2023-05-22T05:24:44;97384.47;;;18.19;100.00
18795;BME280;29610;49.022;12.114;2023-05-22T05:27:34;97384.22;;;18.34;100.00
18795;BME280;29610;49.022;12.114;2023-05-22T05:30:23;97381.19;;;18.43;100.00
18795;BME280;29610;49.022;12.114;2023-05-22T05:33:37;97380.50;;;18.16;100.00
18795;BME280;29610;49.022;12.114;2023-05-22T05:36:33;97383.34;;;18.63;100.00
18795;BME280;29610;49.022;12.114;2023-05-22T05:39:22;97385.22;;;18.52;100.00
18795;BME280;29610;49.022;12.114;2023-05-22T05:42:11;97384.91;;;18.64;100.00
18795;BME280;29610;49.022;12.114;2023-05-22T05:45:02;97382.78;;;18.94;100.00
18795;BME280;29610;49.022;12.114;2023-05-22T05:47:52;97384.47;;;19.13;100.00
18795;BME280;29610;49.022;12.114;2023-05-22T05:50:41;97388.59;;;19.37;100.00
18795;BME280;29610;49.022;12.114;2023-05-22T05:53:30;97387.09;;;19.57;100.00
18795;BME280;29610;49.022;12.114;2023-05-22T05:56:19;97389.06;;;19.53;100.00
18795;BME280;29610;49.022;12.114;2023-05-22T05:59:12;97388.00;;;19.78;100.00
18795;BME280;29610;49.022;12.114;2023-05-22T06:02:20;97388.88;;;20.03;100.00
18795;BME280;29610;49.022;12.114;2023-05-22T06:04:52;97386.59;;;20.30;100.00
18795;BME280;29610;49.022;12.114;2023-05-22T06:07:22;97380.97;;;20.09;100.00
18795;BME280;29610;49.022;12.114;2023-05-22T06:09:52;97388.19;;;20.31;100.00
18795;BME280;29610;49.022;12.114;2023-05-22T06:12:31;97387.78;;;20.47;100.00
18795;BME280;29610;49.022;12.114;2023-05-22T06:14:59;97387.41;;;20.52;100.00
18795;BME280;29610;49.022;12.114;2023-05-22T06:17:29;97388.59;;;20.79;100.00
18795;BME280;29610;49.022;12.114;2023-05-22T06:19:58;97397.69;;;20.90;100.00
18795;BME280;29610;49.022;12.114;2023-05-22T06:22:27;97384.69;;;21.04;100.00
18795;BME280;29610;49.022;12.114;2023-05-22T06:24:57;97392.94;;;21.15;100.00
18795;BME280;29610;49.022;12.114;2023-05-22T06:27:28;97388.13;;;21.40;100.00
18795;BME280;29610;49.022;12.114;2023-05-22T06:29:57;97391.63;;;21.76;100.00
18795;BME280;29610;49.022;12.114;2023-05-22T06:32:32;97390.50;;;21.55;100.00
18795;BME280;29610;49.022;12.114;2023-05-22T06:35:01;97389.63;;;21.69;100.00
18795;BME280;29610;49.022;12.114;2023-05-22T06:37:31;97384.03;;;21.97;100.00
18795;BME280;29610;49.022;12.114;2023-05-22T06:40:02;97376.69;;;22.31;100.00
18795;BME280;29610;49.022;12.114;2023-05-22T06:42:39;97388.06;;;22.54;100.00
18795;BME280;29610;49.022;12.114;2023-05-22T06:45:28;97381.69;;;21.92;100.00
18795;BME280;29610;49.022;12.114;2023-05-22T06:48:24;97377.13;;;22.26;100.00
18795;BME280;29610;49.022;12.114;2023-05-22T06:51:00;97378.31;;;22.25;100.00
18795;BME280;29610;49.022;12.114;2023-05-22T06:53:29;97379.06;;;22.91;100.00
18795;BME280;29610;49.022;12.114;2023-05-22T06:55:58;97377.25;;;23.14;100.00
18795;BME280;29610;49.022;12.114;2023-05-22T06:58:39;97383.34;;;22.99;100.00
18795;BME280;29610;49.022;12.114;2023-05-22T07:01:07;97376.28;;;22.91;100.00
18795;BME280;29610;49.022;12.114;2023-05-22T07:03:43;97386.66;;;23.24;100.00
18795;BME280;29610;49.022;12.114;2023-05-22T07:06:30;97390.53;;;23.37;100.00
18795;BME280;29610;49.022;12.114;2023-05-22T07:09:01;97380.72;;;23.63;100.00
18795;BME280;29610;49.022;12.114;2023-05-22T07:11:29;97393.78;;;23.99;100.00
18795;BME280;29610;49.022;12.114;2023-05-22T07:13:59;97388.63;;;24.01;100.00
18795;BME280;29610;49.022;12.114;2023-05-22T07:16:28;97391.19;;;24.15;100.00
18795;BME280;29610;49.022;12.114;2023-05-22T07:19:01;97386.47;;;24.66;100.00
18795;BME280;29610;49.022;12.114;2023-05-22T07:21:30;97377.16;;;25.02;100.00
18795;BME280;29610;49.022;12.114;2023-05-22T07:24:03;97384.94;;;24.38;100.00
18795;BME280;29610;49.022;12.114;2023-05-22T07:26:40;97388.66;;;24.81;100.00
18795;BME280;29610;49.022;12.114;2023-05-22T07:29:12;97381.22;;;25.21;100.00
18795;BME280;29610;49.022;12.114;2023-05-22T07:31:43;97373.06;;;24.87;100.00
18795;BME280;29610;49.022;12.114;2023-05-22T07:34:13;97375.03;;;25.33;100.00
18795;BME280;29610;49.022;12.114;2023-05-22T07:36:43;97378.94;;;25.58;100.00
18795;BME280;29610;49.022;12.114;2023-05-22T07:39:12;97385.59;;;25.45;100.00
18795;BME280;29610;49.022;12.114;2023-05-22T07:41:46;97375.34;;;26.01;100.00
18795;BME280;29610;49.022;12.114;2023-05-22T07:44:17;97369.84;;;26.17;100.00
18795;BME280;29610;49.022;12.114;2023-05-22T07:46:45;97378.81;;;25.46;100.00
18795;BME280;29610;49.022;12.114;2023-05-22T07:49:20;97378.22;;;25.74;100.00
18795;BME280;29610;49.022;12.114;2023-05-22T07:51:51;97376.25;;;25.32;100.00
18795;BME280;29610;49.022;12.114;2023-05-22T07:54:23;97373.75;;;25.80;100.00
18795;BME280;29610;49.022;12.114;2023-05-22T07:56:52;97378.88;;;26.56;100.00
18795;BME280;29610;49.022;12.114;2023-05-22T07:59:23;97365.94;;;26.82;100.00
18795;BME280;29610;49.022;12.114;2023-05-22T08:01:56;97369.47;;;27.14;100.00
18795;BME280;29610;49.022;12.114;2023-05-22T08:04:26;97371.88;;;27.45;100.00
18795;BME280;29610;49.022;12.114;2023-05-22T08:06:56;97368.72;;;27.59;100.00
18795;BME280;29610;49.022;12.114;2023-05-22T08:09:25;97376.84;;;27.82;100.00
18795;BME280;29610;49.022;12.114;2023-05-22T08:11:54;97362.50;;;27.96;100.00
18795;BME280;29610;49.022;12.114;2023-05-22T08:14:22;97369.84;;;27.00;100.00
18795;BME280;29610;49.022;12.114;2023-05-22T08:16:51;97366.44;;;27.25;100.00
18795;BME280;29610;49.022;12.114;2023-05-22T08:19:19;97367.56;;;27.27;100.00
18795;BME280;29610;49.022;12.114;2023-05-22T08:21:50;97368.88;;;27.68;100.00
18795;BME280;29610;49.022;12.114;2023-05-22T08:24:24;97363.13;;;28.41;100.00
18795;BME280;29610;49.022;12.114;2023-05-22T08:26:56;97371.28;;;28.35;100.00
18795;BME280;29610;49.022;12.114;2023-05-22T08:29:25;97362.38;;;28.78;98.91
18795;BME280;29610;49.022;12.114;2023-05-22T08:31:54;97365.22;;;29.12;95.50
18795;BME280;29610;49.022;12.114;2023-05-22T08:34:24;97366.47;;;28.23;99.37
18795;BME280;29610;49.022;12.114;2023-05-22T08:36:55;97368.91;;;28.34;100.00
18795;BME280;29610;49.022;12.114;2023-05-22T08:39:25;97361.88;;;29.05;89.83
18795;BME280;29610;49.022;12.114;2023-05-22T08:41:54;97367.28;;;28.61;92.48
18795;BME280;29610;49.022;12.114;2023-05-22T08:44:22;97363.59;;;29.36;93.11
18795;BME280;29610;49.022;12.114;2023-05-22T08:46:53;97369.69;;;28.22;100.00
18795;BME280;29610;49.022;12.114;2023-05-22T08:49:23;97359.06;;;29.17;94.56
18795;BME280;29610;49.022;12.114;2023-05-22T08:51:59;97359.69;;;28.62;93.98
18795;BME280;29610;49.022;12.114;2023-05-22T08:54:32;97362.56;;;28.33;100.00
18795;BME280;29610;49.022;12.114;2023-05-22T08:57:04;97366.81;;;28.38;98.93
18795;BME280;29610;49.022;12.114;2023-05-22T08:59:35;97352.03;;;29.13;82.39
18795;BME280;29610;49.022;12.114;2023-05-22T09:02:05;97348.56;;;29.77;80.83
18795;BME280;29610;49.022;12.114;2023-05-22T09:04:34;97354.28;;;29.39;86.28
18795;BME280;29610;49.022;12.114;2023-05-22T09:07:04;97358.53;;;28.22;100.00
18795;BME280;29610;49.022;12.114;2023-05-22T09:09:36;97343.56;;;29.72;85.38
18795;BME280;29610;49.022;12.114;2023-05-22T09:12:07;97336.09;;;30.21;77.36
18795;BME280;29610;49.022;12.114;2023-05-22T09:14:40;97339.50;;;29.94;72.62
18795;BME280;29610;49.022;12.114;2023-05-22T09:17:10;97344.66;;;29.74;76.55
18795;BME280;29610;49.022;12.114;2023-05-22T09:19:42;97344.84;;;30.54;71.09
18795;BME280;29610;49.022;12.114;2023-05-22T09:22:14;97342.41;;;30.74;69.28
18795;BME280;29610;49.022;12.114;2023-05-22T09:24:44;97339.34;;;30.81;70.71
18795;BME280;29610;49.022;12.114;2023-05-22T09:27:13;97334.44;;;31.21;61.87
18795;BME280;29610;49.022;12.114;2023-05-22T09:29:50;97341.06;;;29.95;67.08
18795;BME280;29610;49.022;12.114;2023-05-22T09:32:19;97346.91;;;31.02;66.90
18795;BME280;29610;49.022;12.114;2023-05-22T09:34:48;97334.59;;;31.26;50.09
18795;BME280;29610;49.022;12.114;2023-05-22T09:37:18;97337.91;;;31.52;53.11
18795;BME280;29610;49.022;12.114;2023-05-22T09:39:47;97333.25;;;31.67;56.03
18795;BME280;29610;49.022;12.114;2023-05-22T09:42:17;97352.09;;;32.03;57.01
18795;BME280;29610;49.022;12.114;2023-05-22T09:44:48;97342.19;;;32.34;54.70
18795;BME280;29610;49.022;12.114;2023-05-22T09:47:16;97337.31;;;32.53;53.77
18795;BME280;29610;49.022;12.114;2023-05-22T09:49:45;97335.47;;;32.73;48.81
18795;BME280;29610;49.022;12.114;2023-05-22T09:52:18;97344.47;;;32.96;47.76
18795;BME280;29610;49.022;12.114;2023-05-22T09:54:50;97345.44;;;32.84;47.41
18795;BME280;29610;49.022;12.114;2023-05-22T09:57:24;97336.66;;;32.91;44.75
18795;BME280;29610;49.022;12.114;2023-05-22T09:59:54;97336.31;;;32.98;44.77
18795;BME280;29610;49.022;12.114;2023-05-22T10:02:26;97337.72;;;32.10;48.48
18795;BME280;29610;49.022;12.114;2023-05-22T10:04:56;97331.47;;;32.65;53.90
18795;BME280;29610;49.022;12.114;2023-05-22T10:07:34;97327.59;;;32.87;50.13
18795;BME280;29610;49.022;12.114;2023-05-22T10:10:06;97329.69;;;33.33;50.40
18795;BME280;29610;49.022;12.114;2023-05-22T10:12:43;97329.81;;;32.41;52.90
18795;BME280;29610;49.022;12.114;2023-05-22T10:15:13;97328.38;;;32.04;54.92
18795;BME280;29610;49.022;12.114;2023-05-22T10:17:44;97319.44;;;32.98;48.13
18795;BME280;29610;49.022;12.114;2023-05-22T10:20:14;97316.75;;;33.65;49.13
18795;BME280;29610;49.022;12.114;2023-05-22T10:22:45;97309.53;;;34.02;49.15
18795;BME280;29610;49.022;12.114;2023-05-22T10:25:16;97313.31;;;34.28;49.12
18795;BME280;29610;49.022;12.114;2023-05-22T10:27:45;97311.84;;;34.47;47.60
18795;BME280;29610;49.022;12.114;2023-05-22T10:33:14;97301.16;;;34.51;43.29
18795;BME280;29610;49.022;12.114;2023-05-22T10:35:49;97302.50;;;34.56;42.57
18795;BME280;29610;49.022;12.114;2023-05-22T10:38:51;97302.81;;;34.29;44.46
18795;BME280;29610;49.022;12.114;2023-05-22T10:41:22;97300.84;;;33.76;51.51
18795;BME280;29610;49.022;12.114;2023-05-22T10:43:51;97299.34;;;33.52;48.53
18795;BME280;29610;49.022;12.114;2023-05-22T10:46:23;97302.13;;;34.34;45.42
18795;BME280;29610;49.022;12.114;2023-05-22T10:48:53;97295.47;;;34.66;44.88
18795;BME280;29610;49.022;12.114;2023-05-22T10:51:23;97298.63;;;34.88;40.24
18795;BME280;29610;49.022;12.114;2023-05-22T10:53:58;97290.72;;;34.92;38.16
18795;BME280;29610;49.022;12.114;2023-05-22T10:56:32;97294.38;;;34.43;47.39
18795;BME280;29610;49.022;12.114;2023-05-22T10:59:04;97291.91;;;34.85;42.96
18795;BME280;29610;49.022;12.114;2023-05-22T11:01:34;97286.16;;;34.94;40.67
18795;BME280;29610;49.022;12.114;2023-05-22T11:04:11;97285.09;;;35.32;39.59
18795;BME280;29610;49.022;12.114;2023-05-22T11:07:01;97279.56;;;35.38;46.29
18795;BME280;29610;49.022;12.114;2023-05-22T11:09:33;97286.88;;;35.50;38.87
18795;BME280;29610;49.022;12.114;2023-05-22T11:12:19;97284.47;;;35.63;41.51
18795;BME280;29610;49.022;12.114;2023-05-22T11:14:54;97276.72;;;35.38;40.88
18795;BME280;29610;49.022;12.114;2023-05-22T11:17:25;97275.97;;;35.63;40.07
18795;BME280;29610;49.022;12.114;2023-05-22T11:20:00;97270.78;;;36.07;40.11
18795;BME280;29610;49.022;12.114;2023-05-22T11:22:36;97279.63;;;36.20;41.44
18795;BME280;29610;49.022;12.114;2023-05-22T11:25:10;97273.25;;;36.56;39.12
18795;BME280;29610;49.022;12.114;2023-05-22T11:27:40;97269.09;;;35.44;38.08
18795;BME280;29610;49.022;12.114;2023-05-22T11:30:10;97277.03;;;36.16;41.79
18795;BME280;29610;49.022;12.114;2023-05-22T11:32:43;97275.53;;;35.95;38.95
18795;BME280;29610;49.022;12.114;2023-05-22T11:35:17;97266.31;;;36.57;36.67
18795;BME280;29610;49.022;12.114;2023-05-22T11:37:48;97258.13;;;36.64;33.42
18795;BME280;29610;49.022;12.114;2023-05-22T11:40:21;97259.06;;;36.50;34.63
18795;BME280;29610;49.022;12.114;2023-05-22T11:42:52;97261.31;;;36.78;33.34
18795;BME280;29610;49.022;12.114;2023-05-22T11:45:20;97255.16;;;36.85;34.50
18795;BME280;29610;49.022;12.114;2023-05-22T11:47:49;97255.09;;;36.73;35.44
18795;BME280;29610;49.022;12.114;2023-05-22T11:50:18;97256.03;;;36.59;37.99
18795;BME280;29610;49.022;12.114;2023-05-22T11:53:07;97253.91;;;36.86;34.30
18795;BME280;29610;49.022;12.114;2023-05-22T11:55:37;97252.03;;;36.40;34.76
18795;BME280;29610;49.022;12.114;2023-05-22T11:58:05;97251.03;;;36.80;33.08
18795;BME280;29610;49.022;12.114;2023-05-22T12:00:34;97246.44;;;36.83;31.84
18795;BME280;29610;49.022;12.114;2023-05-22T12:03:02;97244.31;;;37.25;34.49
18795;BME280;29610;49.022;12.114;2023-05-22T12:05:31;97247.00;;;36.55;33.07
18795;BME280;29610;49.022;12.114;2023-05-22T12:08:00;97249.41;;;36.68;36.55
18795;BME280;29610;49.022;12.114;2023-05-22T12:10:30;97241.88;;;37.02;35.64
18795;BME280;29610;49.022;12.114;2023-05-22T12:13:00;97242.84;;;37.46;35.09
18795;BME280;29610;49.022;12.114;2023-05-22T12:15:29;97239.84;;;37.72;32.25
18795;BME280;29610;49.022;12.114;2023-05-22T12:17:57;97245.69;;;36.88;35.39
18795;BME280;29610;49.022;12.114;2023-05-22T12:20:28;97245.69;;;37.46;36.31
18795;BME280;29610;49.022;12.114;2023-05-22T12:22:57;97235.44;;;37.71;36.30
18795;BME280;29610;49.022;12.114;2023-05-22T12:25:34;97237.06;;;35.78;34.72
18795;BME280;29610;49.022;12.114;2023-05-22T12:28:05;97236.25;;;35.06;34.39
18795;BME280;29610;49.022;12.114;2023-05-22T12:30:40;97247.78;;;35.94;36.05
18795;BME280;29610;49.022;12.114;2023-05-22T12:33:13;97234.97;;;36.66;36.92
18795;BME280;29610;49.022;12.114;2023-05-22T12:35:42;97229.78;;;37.01;37.13
18795;BME280;29610;49.022;12.114;2023-05-22T12:38:10;97232.44;;;37.21;33.72
18795;BME280;29610;49.022;12.114;2023-05-22T12:40:41;97222.31;;;37.73;36.23
18795;BME280;29610;49.022;12.114;2023-05-22T12:43:11;97230.97;;;37.42;36.33
18795;BME280;29610;49.022;12.114;2023-05-22T12:45:40;97224.47;;;35.33;35.82
18795;BME280;29610;49.022;12.114;2023-05-22T12:48:08;97228.84;;;36.05;34.91
18795;BME280;29610;49.022;12.114;2023-05-22T12:50:38;97227.19;;;36.55;36.99
18795;BME280;29610;49.022;12.114;2023-05-22T12:53:07;97219.97;;;36.97;32.83
18795;BME280;29610;49.022;12.114;2023-05-22T12:55:35;97220.69;;;37.45;37.66
18795;BME280;29610;49.022;12.114;2023-05-22T12:58:04;97225.41;;;37.92;35.09
18795;BME280;29610;49.022;12.114;2023-05-22T13:00:34;97222.84;;;36.60;35.05
18795;BME280;29610;49.022;12.114;2023-05-22T13:03:04;97222.75;;;36.86;35.19
18795;BME280;29610;49.022;12.114;2023-05-22T13:05:33;97216.59;;;36.87;33.62
18795;BME280;29610;49.022;12.114;2023-05-22T13:08:02;97215.50;;;36.79;36.46
18795;BME280;29610;49.022;12.114;2023-05-22T13:10:30;97209.84;;;37.49;35.93
18795;BME280;29610;49.022;12.114;2023-05-22T13:12:58;97201.41;;;37.82;33.85
18795;BME280;29610;49.022;12.114;2023-05-22T13:15:27;97207.88;;;37.82;35.63
18795;BME280;29610;49.022;12.114;2023-05-22T13:17:59;97199.91;;;37.75;35.29
18795;BME280;29610;49.022;12.114;2023-05-22T13:20:27;97197.06;;;37.81;33.06
18795;BME280;29610;49.022;12.114;2023-05-22T13:22:56;97207.38;;;37.95;35.26
18795;BME280;29610;49.022;12.114;2023-05-22T13:25:26;97200.34;;;37.46;33.29
18795;BME280;29610;49.022;12.114;2023-05-22T13:27:55;97204.09;;;37.21;34.41
18795;BME280;29610;49.022;12.114;2023-05-22T13:30:23;97198.53;;;37.43;34.02
18795;BME280;29610;49.022;12.114;2023-05-22T13:32:55;97200.09;;;36.43;35.00
18795;BME280;29610;49.022;12.114;2023-05-22T13:35:25;97203.03;;;34.81;37.65
18795;BME280;29610;49.022;12.114;2023-05-22T13:37:53;97200.56;;;35.28;35.58
18795;BME280;29610;49.022;12.114;2023-05-22T13:40:23;97205.84;;;35.92;33.51
18795;BME280;29610;49.022;12.114;2023-05-22T13:42:55;97195.81;;;33.90;31.65
18795;BME280;29610;49.022;12.114;2023-05-22T13:45:23;97188.78;;;33.71;34.72
18795;BME280;29610;49.022;12.114;2023-05-22T13:47:53;97185.06;;;34.09;34.83
18795;BME280;29610;49.022;12.114;2023-05-22T13:50:22;97186.34;;;33.79;36.82